Nichioh Maru — JD3267 — position and weather

sailwx.info

Track history (hours):
 
Tides and Currents Weather Stations Pressure Air Temp Water Temp Dewpoint Dewpoint Depression Visibility Wind Speed Wind Dir Waves Ship Positions

Nichioh Maru

Last reported at 2017-Jan-23 04:33 UTC. Time now 2017-Jan-23 21:04 UTC.
Position N 34°35' E 134°51'.

Length 170 m; draft 6.5 m.

Type: Cargo ship. MMSI: 431003232.

Date/timePositionNaut miles runAvg speedWind from/ knotsBaromVisibWave heightAir tempDewpointWater temp
2017-Jan-23 04:33N 34°35' E 134°51'1717.5
2017-Jan-23 03:33N 34°36' E 135°12'5 3.4
2017-Jan-23 02:11N 34°41' E 135°13'0 0.0
2017-Jan-23 01:29N 34°41' E 135°13'1 0.6
2017-Jan-23 00:33N 34°41' E 135°14'1615.9
2017-Jan-22 23:33N 34°26' E 135°07'1919.1
2017-Jan-22 22:33N 34°08' E 135°00'233 7.0
2017-Jan-21 13:30N 35°01' E 139°35'1415.0
2017-Jan-21 12:33N 35°12' E 139°46'1312.6
2017-Jan-21 11:33N 35°24' E 139°43'6 6.4
2017-Jan-21 10:33N 35°30' E 139°46'0 0.0
2017-Jan-21 09:33N 35°30' E 139°46'0 0.0
2017-Jan-21 08:33N 35°30' E 139°46'0 0.0
2017-Jan-21 07:33N 35°30' E 139°46'0 0.0
2017-Jan-21 06:33N 35°30' E 139°46'0 0.0
2017-Jan-21 05:30N 35°30' E 139°46'0 0.0
2017-Jan-21 04:33N 35°30' E 139°46'7 6.9
2017-Jan-21 03:33N 35°24' E 139°46'7 7.4
2017-Jan-21 02:33N 35°19' E 139°39'0 0.0
2017-Jan-21 01:32N 35°19' E 139°39'0 0.0
2017-Jan-21 00:32N 35°19' E 139°39'0 0.0
2017-Jan-20 23:31N 35°19' E 139°39'0 0.0
2017-Jan-20 22:32N 35°19' E 139°39'0 0.3
2017-Jan-20 21:33N 35°19' E 139°39'1010.2
2017-Jan-20 20:33N 35°10' E 139°46'24516.0
2017-Jan-20 05:15N 34°02' E 134°60'1620.8
2017-Jan-20 04:31N 34°18' E 134°59'1919.8
2017-Jan-20 03:34N 34°32' E 135°14'8 7.1
2017-Jan-20 02:23N 34°41' E 135°13'0 0.0
2017-Jan-20 01:29N 34°41' E 135°13'0 0.0
2017-Jan-20 00:29N 34°41' E 135°13'0 0.0
2017-Jan-19 23:33N 34°41' E 135°13'2 1.5
2017-Jan-19 22:33N 34°40' E 135°15'3 3.2
2017-Jan-19 21:28N 34°37' E 135°17'0 0.0
2017-Jan-19 20:22N 34°37' E 135°17'0 0.0
2017-Jan-19 19:28N 34°37' E 135°17'0 0.0
2017-Jan-19 17:22N 34°37' E 135°17'0 0.0
2017-Jan-19 16:22N 34°37' E 135°17'0 0.0
2017-Jan-19 15:28N 34°37' E 135°17'0 0.0
2017-Jan-19 14:16N 34°37' E 135°17'0 0.0
2017-Jan-19 13:28N 34°37' E 135°17'0 0.0
2017-Jan-19 12:22N 34°37' E 135°17'0 0.0
2017-Jan-19 11:28N 34°37' E 135°17'0 0.1
2017-Jan-19 10:33N 34°37' E 135°17'1414.4
2017-Jan-19 09:33N 34°37' E 134°60'  
2017-Jan-16 08:17N 34°37' E 134°56'1216.4
2017-Jan-16 07:33N 34°36' E 135°10'5 4.1
2017-Jan-16 06:18N 34°41' E 135°13'0 0.0
2017-Jan-16 05:24N 34°41' E 135°13'0 0.0
2017-Jan-16 04:24N 34°41' E 135°13'0 0.0
2017-Jan-16 03:24N 34°41' E 135°13'0 0.0
2017-Jan-16 02:18N 34°41' E 135°13'0 0.0
2017-Jan-16 01:30N 34°41' E 135°13'0 0.0
2017-Jan-16 00:30N 34°41' E 135°13'0 0.1
2017-Jan-15 23:33N 34°41' E 135°14'1212.3
2017-Jan-15 22:33N 34°29' E 135°11'1918.9
2017-Jan-15 21:34N 34°12' E 135°00'235 7.3
2017-Jan-14 13:31N 35°03' E 139°39'1414.6
2017-Jan-14 12:33N 35°15' E 139°46'1313.3
2017-Jan-14 11:33N 35°29' E 139°47'2 2.0
2017-Jan-14 10:32N 35°30' E 139°46'0 0.0
2017-Jan-14 09:32N 35°30' E 139°46'0 0.0
2017-Jan-14 08:32N 35°30' E 139°46'0 0.0
2017-Jan-14 07:32N 35°30' E 139°46'0 0.0
2017-Jan-14 06:32N 35°30' E 139°46'0 0.0
2017-Jan-14 05:32N 35°30' E 139°46'0 0.0
2017-Jan-14 04:29N 35°30' E 139°46'2 2.1
2017-Jan-14 03:33N 35°30' E 139°44'12 2.9
2017-Jan-13 23:33N 35°19' E 139°39'0 0.0
2017-Jan-13 22:30N 35°19' E 139°39'0 0.1
2017-Jan-13 21:33N 35°19' E 139°39'10 9.9
2017-Jan-13 20:33N 35°11' E 139°47'  
Track history (hours):
 
Tides and Currents Weather Stations Pressure Air Temp Water Temp Dewpoint Dewpoint Depression Visibility Wind Speed Wind Dir Waves Ship Positions

Nichioh Maru

Last reported at 2017-Jan-23 04:33 UTC. Time now 2017-Jan-23 21:04 UTC.
Position N 34°35' E 134°51'.

Length 170 m; draft 6.5 m.

Type: Cargo ship. MMSI: 431003232.

Date/timePositionNaut miles runAvg speedWind from/ knotsBaromVisibWave heightAir tempDewpointWater temp
2017-Jan-23 04:33N 34°35' E 134°51'1717.5
2017-Jan-23 03:33N 34°36' E 135°12'5 3.4
2017-Jan-23 02:11N 34°41' E 135°13'0 0.0
2017-Jan-23 01:29N 34°41' E 135°13'1 0.6
2017-Jan-23 00:33N 34°41' E 135°14'1615.9
2017-Jan-22 23:33N 34°26' E 135°07'1919.1
2017-Jan-22 22:33N 34°08' E 135°00'233 7.0
2017-Jan-21 13:30N 35°01' E 139°35'1415.0
2017-Jan-21 12:33N 35°12' E 139°46'1312.6
2017-Jan-21 11:33N 35°24' E 139°43'6 6.4
2017-Jan-21 10:33N 35°30' E 139°46'0 0.0
2017-Jan-21 09:33N 35°30' E 139°46'0 0.0
2017-Jan-21 08:33N 35°30' E 139°46'0 0.0
2017-Jan-21 07:33N 35°30' E 139°46'0 0.0
2017-Jan-21 06:33N 35°30' E 139°46'0 0.0
2017-Jan-21 05:30N 35°30' E 139°46'0 0.0
2017-Jan-21 04:33N 35°30' E 139°46'7 6.9
2017-Jan-21 03:33N 35°24' E 139°46'7 7.4
2017-Jan-21 02:33N 35°19' E 139°39'0 0.0
2017-Jan-21 01:32N 35°19' E 139°39'0 0.0
2017-Jan-21 00:32N 35°19' E 139°39'0 0.0
2017-Jan-20 23:31N 35°19' E 139°39'0 0.0
2017-Jan-20 22:32N 35°19' E 139°39'0 0.3
2017-Jan-20 21:33N 35°19' E 139°39'1010.2
2017-Jan-20 20:33N 35°10' E 139°46'24516.0
2017-Jan-20 05:15N 34°02' E 134°60'1620.8
2017-Jan-20 04:31N 34°18' E 134°59'1919.8
2017-Jan-20 03:34N 34°32' E 135°14'8 7.1
2017-Jan-20 02:23N 34°41' E 135°13'0 0.0
2017-Jan-20 01:29N 34°41' E 135°13'0 0.0
2017-Jan-20 00:29N 34°41' E 135°13'0 0.0
2017-Jan-19 23:33N 34°41' E 135°13'2 1.5
2017-Jan-19 22:33N 34°40' E 135°15'3 3.2
2017-Jan-19 21:28N 34°37' E 135°17'0 0.0
2017-Jan-19 20:22N 34°37' E 135°17'0 0.0
2017-Jan-19 19:28N 34°37' E 135°17'0 0.0
2017-Jan-19 17:22N 34°37' E 135°17'0 0.0
2017-Jan-19 16:22N 34°37' E 135°17'0 0.0
2017-Jan-19 15:28N 34°37' E 135°17'0 0.0
2017-Jan-19 14:16N 34°37' E 135°17'0 0.0
2017-Jan-19 13:28N 34°37' E 135°17'0 0.0
2017-Jan-19 12:22N 34°37' E 135°17'0 0.0
2017-Jan-19 11:28N 34°37' E 135°17'0 0.1
2017-Jan-19 10:33N 34°37' E 135°17'1414.4
2017-Jan-19 09:33N 34°37' E 134°60'  
2017-Jan-16 08:17N 34°37' E 134°56'1216.4
2017-Jan-16 07:33N 34°36' E 135°10'5 4.1
2017-Jan-16 06:18N 34°41' E 135°13'0 0.0
2017-Jan-16 05:24N 34°41' E 135°13'0 0.0
2017-Jan-16 04:24N 34°41' E 135°13'0 0.0
2017-Jan-16 03:24N 34°41' E 135°13'0 0.0
2017-Jan-16 02:18N 34°41' E 135°13'0 0.0
2017-Jan-16 01:30N 34°41' E 135°13'0 0.0
2017-Jan-16 00:30N 34°41' E 135°13'0 0.1
2017-Jan-15 23:33N 34°41' E 135°14'1212.3
2017-Jan-15 22:33N 34°29' E 135°11'1918.9
2017-Jan-15 21:34N 34°12' E 135°00'235 7.3
2017-Jan-14 13:31N 35°03' E 139°39'1414.6
2017-Jan-14 12:33N 35°15' E 139°46'1313.3
2017-Jan-14 11:33N 35°29' E 139°47'2 2.0
2017-Jan-14 10:32N 35°30' E 139°46'0 0.0
2017-Jan-14 09:32N 35°30' E 139°46'0 0.0
2017-Jan-14 08:32N 35°30' E 139°46'0 0.0
2017-Jan-14 07:32N 35°30' E 139°46'0 0.0
2017-Jan-14 06:32N 35°30' E 139°46'0 0.0
2017-Jan-14 05:32N 35°30' E 139°46'0 0.0
2017-Jan-14 04:29N 35°30' E 139°46'2 2.1
2017-Jan-14 03:33N 35°30' E 139°44'12 2.9
2017-Jan-13 23:33N 35°19' E 139°39'0 0.0
2017-Jan-13 22:30N 35°19' E 139°39'0 0.1
2017-Jan-13 21:33N 35°19' E 139°39'10 9.9
2017-Jan-13 20:33N 35°11' E 139°47'  

Dump ship's entire track history